sensor_id;sensor_type;location;lat;lon;timestamp;temperature;humidity
8988;DHT22;4529;51.360;12.474;2024-01-06T00:02:27;6.00;99.90
8988;DHT22;4529;51.360;12.474;2024-01-06T00:07:31;5.90;99.90
8988;DHT22;4529;51.360;12.474;2024-01-06T00:12:34;5.70;99.90
8988;DHT22;4529;51.360;12.474;2024-01-06T00:17:37;5.60;99.90
8988;DHT22;4529;51.360;12.474;2024-01-06T00:22:41;5.50;99.90
8988;DHT22;4529;51.360;12.474;2024-01-06T00:27:45;5.30;99.90
8988;DHT22;4529;51.360;12.474;2024-01-06T00:32:49;5.30;99.90
8988;DHT22;4529;51.360;12.474;2024-01-06T00:37:53;5.30;99.90
8988;DHT22;4529;51.360;12.474;2024-01-06T00:42:56;5.20;99.90
8988;DHT22;4529;51.360;12.474;2024-01-06T00:47:59;5.00;99.90
8988;DHT22;4529;51.360;12.474;2024-01-06T00:53:03;5.00;99.90
8988;DHT22;4529;51.360;12.474;2024-01-06T00:58:06;4.90;99.90
8988;DHT22;4529;51.360;12.474;2024-01-06T01:03:10;4.90;99.90
8988;DHT22;4529;51.360;12.474;2024-01-06T01:08:14;4.90;99.90
8988;DHT22;4529;51.360;12.474;2024-01-06T01:13:17;4.90;99.90
8988;DHT22;4529;51.360;12.474;2024-01-06T01:18:21;4.80;99.90
8988;DHT22;4529;51.360;12.474;2024-01-06T01:23:25;4.70;99.90
8988;DHT22;4529;51.360;12.474;2024-01-06T01:28:29;4.60;99.90
8988;DHT22;4529;51.360;12.474;2024-01-06T01:33:33;4.60;99.90
8988;DHT22;4529;51.360;12.474;2024-01-06T01:38:37;4.50;99.90
8988;DHT22;4529;51.360;12.474;2024-01-06T01:43:41;4.50;99.90
8988;DHT22;4529;51.360;12.474;2024-01-06T01:48:44;4.50;99.90
8988;DHT22;4529;51.360;12.474;2024-01-06T01:53:48;4.50;99.90
8988;DHT22;4529;51.360;12.474;2024-01-06T01:58:51;4.40;99.90
8988;DHT22;4529;51.360;12.474;2024-01-06T02:03:55;4.40;99.90
8988;DHT22;4529;51.360;12.474;2024-01-06T02:08:59;4.40;99.90
8988;DHT22;4529;51.360;12.474;2024-01-06T02:14:03;4.40;99.90
8988;DHT22;4529;51.360;12.474;2024-01-06T02:19:06;4.40;99.90
8988;DHT22;4529;51.360;12.474;2024-01-06T02:24:10;4.40;99.90
8988;DHT22;4529;51.360;12.474;2024-01-06T02:29:13;4.50;99.90
8988;DHT22;4529;51.360;12.474;2024-01-06T02:34:17;4.40;99.90
8988;DHT22;4529;51.360;12.474;2024-01-06T02:39:20;4.40;99.90
8988;DHT22;4529;51.360;12.474;2024-01-06T02:44:24;3.90;99.90
8988;DHT22;4529;51.360;12.474;2024-01-06T02:49:28;3.60;99.90
8988;DHT22;4529;51.360;12.474;2024-01-06T02:54:32;3.20;99.90
8988;DHT22;4529;51.360;12.474;2024-01-06T02:59:37;3.20;99.90
8988;DHT22;4529;51.360;12.474;2024-01-06T03:04:40;3.20;99.90
8988;DHT22;4529;51.360;12.474;2024-01-06T03:09:44;3.10;99.90
8988;DHT22;4529;51.360;12.474;2024-01-06T03:14:47;3.10;99.90
8988;DHT22;4529;51.360;12.474;2024-01-06T03:19:51;3.20;99.90
8988;DHT22;4529;51.360;12.474;2024-01-06T03:24:54;3.40;99.90
8988;DHT22;4529;51.360;12.474;2024-01-06T03:29:58;3.60;99.90
8988;DHT22;4529;51.360;12.474;2024-01-06T03:35:02;3.70;99.90
8988;DHT22;4529;51.360;12.474;2024-01-06T03:40:07;3.70;99.90
8988;DHT22;4529;51.360;12.474;2024-01-06T03:45:11;3.70;99.90
8988;DHT22;4529;51.360;12.474;2024-01-06T03:50:15;3.70;99.90
8988;DHT22;4529;51.360;12.474;2024-01-06T03:55:19;3.70;99.90
8988;DHT22;4529;51.360;12.474;2024-01-06T04:00:24;3.70;99.90
8988;DHT22;4529;51.360;12.474;2024-01-06T04:05:26;3.70;99.90
8988;DHT22;4529;51.360;12.474;2024-01-06T04:10:30;3.80;99.90
8988;DHT22;4529;51.360;12.474;2024-01-06T04:15:33;3.80;99.90
8988;DHT22;4529;51.360;12.474;2024-01-06T04:20:37;3.80;99.90
8988;DHT22;4529;51.360;12.474;2024-01-06T04:25:42;3.80;99.90
8988;DHT22;4529;51.360;12.474;2024-01-06T04:30:46;3.90;99.90
8988;DHT22;4529;51.360;12.474;2024-01-06T04:35:50;3.70;99.90
8988;DHT22;4529;51.360;12.474;2024-01-06T04:40:54;3.70;99.90
8988;DHT22;4529;51.360;12.474;2024-01-06T04:45:58;3.70;99.90
8988;DHT22;4529;51.360;12.474;2024-01-06T04:51:03;3.70;99.90
8988;DHT22;4529;51.360;12.474;2024-01-06T04:56:09;3.70;99.90
8988;DHT22;4529;51.360;12.474;2024-01-06T05:01:12;3.70;99.90
8988;DHT22;4529;51.360;12.474;2024-01-06T05:06:16;3.70;99.90
8988;DHT22;4529;51.360;12.474;2024-01-06T05:11:19;3.70;99.90
8988;DHT22;4529;51.360;12.474;2024-01-06T05:16:23;3.70;99.90
8988;DHT22;4529;51.360;12.474;2024-01-06T05:21:26;3.60;99.90
8988;DHT22;4529;51.360;12.474;2024-01-06T05:26:30;3.70;99.90
8988;DHT22;4529;51.360;12.474;2024-01-06T05:31:34;3.70;99.90
8988;DHT22;4529;51.360;12.474;2024-01-06T05:36:37;3.70;99.90
8988;DHT22;4529;51.360;12.474;2024-01-06T05:41:41;3.80;99.90
8988;DHT22;4529;51.360;12.474;2024-01-06T05:46:44;3.80;99.90
8988;DHT22;4529;51.360;12.474;2024-01-06T05:51:48;3.70;99.90
8988;DHT22;4529;51.360;12.474;2024-01-06T05:56:52;3.70;99.90
8988;DHT22;4529;51.360;12.474;2024-01-06T06:01:56;3.70;99.90
8988;DHT22;4529;51.360;12.474;2024-01-06T06:07:01;3.70;99.90
8988;DHT22;4529;51.360;12.474;2024-01-06T06:12:05;3.70;99.90
8988;DHT22;4529;51.360;12.474;2024-01-06T06:17:08;3.60;99.90
8988;DHT22;4529;51.360;12.474;2024-01-06T06:22:12;3.80;99.90
8988;DHT22;4529;51.360;12.474;2024-01-06T06:27:16;3.70;99.90
8988;DHT22;4529;51.360;12.474;2024-01-06T06:32:21;3.70;99.90
8988;DHT22;4529;51.360;12.474;2024-01-06T06:37:24;3.70;99.90
8988;DHT22;4529;51.360;12.474;2024-01-06T06:42:27;3.70;99.90
8988;DHT22;4529;51.360;12.474;2024-01-06T06:47:31;3.70;99.90
8988;DHT22;4529;51.360;12.474;2024-01-06T06:52:35;3.70;99.90
8988;DHT22;4529;51.360;12.474;2024-01-06T06:57:39;3.80;99.90
8988;DHT22;4529;51.360;12.474;2024-01-06T07:02:42;3.70;99.90
8988;DHT22;4529;51.360;12.474;2024-01-06T07:07:46;3.70;99.90
8988;DHT22;4529;51.360;12.474;2024-01-06T07:12:50;3.70;99.90
8988;DHT22;4529;51.360;12.474;2024-01-06T07:17:53;3.70;99.90
8988;DHT22;4529;51.360;12.474;2024-01-06T07:22:57;3.70;99.90
8988;DHT22;4529;51.360;12.474;2024-01-06T07:28:00;3.80;99.90
8988;DHT22;4529;51.360;12.474;2024-01-06T07:33:04;3.80;99.90
8988;DHT22;4529;51.360;12.474;2024-01-06T07:38:07;3.80;99.90
8988;DHT22;4529;51.360;12.474;2024-01-06T07:43:13;3.90;99.90
8988;DHT22;4529;51.360;12.474;2024-01-06T07:48:17;3.90;99.90
8988;DHT22;4529;51.360;12.474;2024-01-06T07:53:21;3.90;99.90
8988;DHT22;4529;51.360;12.474;2024-01-06T07:58:24;3.90;99.90
8988;DHT22;4529;51.360;12.474;2024-01-06T08:03:28;4.00;99.90
8988;DHT22;4529;51.360;12.474;2024-01-06T08:08:31;4.10;99.90
8988;DHT22;4529;51.360;12.474;2024-01-06T08:13:35;4.20;99.90
8988;DHT22;4529;51.360;12.474;2024-01-06T08:18:39;4.20;99.90
8988;DHT22;4529;51.360;12.474;2024-01-06T08:23:43;4.20;99.90
8988;DHT22;4529;51.360;12.474;2024-01-06T08:28:46;4.30;99.90
8988;DHT22;4529;51.360;12.474;2024-01-06T08:33:50;4.30;99.90
8988;DHT22;4529;51.360;12.474;2024-01-06T08:38:53;4.30;99.90
8988;DHT22;4529;51.360;12.474;2024-01-06T08:43:57;4.40;99.90
8988;DHT22;4529;51.360;12.474;2024-01-06T08:49:01;4.50;99.90
8988;DHT22;4529;51.360;12.474;2024-01-06T08:54:04;4.50;99.90
8988;DHT22;4529;51.360;12.474;2024-01-06T08:59:08;4.50;99.90
8988;DHT22;4529;51.360;12.474;2024-01-06T09:04:11;4.60;99.90
8988;DHT22;4529;51.360;12.474;2024-01-06T09:09:15;4.70;99.90
8988;DHT22;4529;51.360;12.474;2024-01-06T09:14:19;4.70;99.90
8988;DHT22;4529;51.360;12.474;2024-01-06T09:19:24;4.70;99.90
8988;DHT22;4529;51.360;12.474;2024-01-06T09:24:32;4.80;99.90
8988;DHT22;4529;51.360;12.474;2024-01-06T09:29:37;4.80;99.90
8988;DHT22;4529;51.360;12.474;2024-01-06T09:34:40;4.90;99.90
8988;DHT22;4529;51.360;12.474;2024-01-06T09:39:44;4.90;99.90
8988;DHT22;4529;51.360;12.474;2024-01-06T09:44:47;5.00;99.90
8988;DHT22;4529;51.360;12.474;2024-01-06T09:49:50;5.00;99.90
8988;DHT22;4529;51.360;12.474;2024-01-06T09:54:54;5.10;99.90
8988;DHT22;4529;51.360;12.474;2024-01-06T09:59:57;4.80;99.90
8988;DHT22;4529;51.360;12.474;2024-01-06T10:05:01;4.30;99.90
8988;DHT22;4529;51.360;12.474;2024-01-06T10:10:06;4.30;99.90
8988;DHT22;4529;51.360;12.474;2024-01-06T10:15:11;4.20;99.90
8988;DHT22;4529;51.360;12.474;2024-01-06T10:20:14;4.30;99.90
8988;DHT22;4529;51.360;12.474;2024-01-06T10:25:18;4.30;99.90
8988;DHT22;4529;51.360;12.474;2024-01-06T10:30:22;4.50;99.90
8988;DHT22;4529;51.360;12.474;2024-01-06T10:35:26;4.50;99.90
8988;DHT22;4529;51.360;12.474;2024-01-06T10:40:32;4.50;99.90
8988;DHT22;4529;51.360;12.474;2024-01-06T10:45:35;4.40;99.90
8988;DHT22;4529;51.360;12.474;2024-01-06T10:50:40;4.50;99.90
8988;DHT22;4529;51.360;12.474;2024-01-06T10:55:44;4.50;99.90
8988;DHT22;4529;51.360;12.474;2024-01-06T11:00:48;4.60;99.90
8988;DHT22;4529;51.360;12.474;2024-01-06T11:05:52;4.60;99.90
8988;DHT22;4529;51.360;12.474;2024-01-06T11:10:56;4.70;99.90
8988;DHT22;4529;51.360;12.474;2024-01-06T11:16:00;4.80;99.90
8988;DHT22;4529;51.360;12.474;2024-01-06T11:21:20;4.80;99.90
8988;DHT22;4529;51.360;12.474;2024-01-06T11:26:24;4.80;99.90
8988;DHT22;4529;51.360;12.474;2024-01-06T11:31:34;5.00;99.90
8988;DHT22;4529;51.360;12.474;2024-01-06T11:36:37;4.90;99.90
8988;DHT22;4529;51.360;12.474;2024-01-06T11:41:50;4.90;99.90
8988;DHT22;4529;51.360;12.474;2024-01-06T11:46:55;4.90;99.90
8988;DHT22;4529;51.360;12.474;2024-01-06T11:51:57;4.90;99.90
8988;DHT22;4529;51.360;12.474;2024-01-06T11:57:00;4.90;99.90
8988;DHT22;4529;51.360;12.474;2024-01-06T12:02:04;4.90;99.90
8988;DHT22;4529;51.360;12.474;2024-01-06T12:07:08;4.90;99.90
8988;DHT22;4529;51.360;12.474;2024-01-06T12:12:18;4.90;99.90
8988;DHT22;4529;51.360;12.474;2024-01-06T12:17:17;5.00;99.90
8988;DHT22;4529;51.360;12.474;2024-01-06T12:22:21;4.90;99.90
8988;DHT22;4529;51.360;12.474;2024-01-06T12:27:26;5.00;99.90
8988;DHT22;4529;51.360;12.474;2024-01-06T12:32:30;5.00;99.90
8988;DHT22;4529;51.360;12.474;2024-01-06T12:37:35;5.00;99.90
8988;DHT22;4529;51.360;12.474;2024-01-06T12:42:39;5.00;99.90
8988;DHT22;4529;51.360;12.474;2024-01-06T12:47:43;5.00;99.90
8988;DHT22;4529;51.360;12.474;2024-01-06T12:52:47;4.80;99.90
8988;DHT22;4529;51.360;12.474;2024-01-06T12:57:51;4.70;99.90
8988;DHT22;4529;51.360;12.474;2024-01-06T13:02:56;4.60;99.90
8988;DHT22;4529;51.360;12.474;2024-01-06T13:08:00;4.50;99.90
8988;DHT22;4529;51.360;12.474;2024-01-06T13:13:05;4.50;99.90
8988;DHT22;4529;51.360;12.474;2024-01-06T13:18:08;4.50;99.90
8988;DHT22;4529;51.360;12.474;2024-01-06T13:23:11;4.50;99.90
8988;DHT22;4529;51.360;12.474;2024-01-06T13:28:18;4.50;99.90
8988;DHT22;4529;51.360;12.474;2024-01-06T13:33:21;4.50;99.90
8988;DHT22;4529;51.360;12.474;2024-01-06T13:38:25;4.50;99.90
8988;DHT22;4529;51.360;12.474;2024-01-06T13:43:28;4.50;99.90
8988;DHT22;4529;51.360;12.474;2024-01-06T13:48:32;4.40;99.90
8988;DHT22;4529;51.360;12.474;2024-01-06T13:53:35;4.40;99.90
8988;DHT22;4529;51.360;12.474;2024-01-06T13:58:39;4.40;99.90
8988;DHT22;4529;51.360;12.474;2024-01-06T14:03:43;4.40;99.90
8988;DHT22;4529;51.360;12.474;2024-01-06T14:08:48;4.30;99.90
8988;DHT22;4529;51.360;12.474;2024-01-06T14:13:51;4.30;99.90
8988;DHT22;4529;51.360;12.474;2024-01-06T14:18:54;4.30;99.90
8988;DHT22;4529;51.360;12.474;2024-01-06T14:23:59;4.10;99.90
8988;DHT22;4529;51.360;12.474;2024-01-06T14:29:03;4.10;99.90
8988;DHT22;4529;51.360;12.474;2024-01-06T14:34:07;4.10;99.90
8988;DHT22;4529;51.360;12.474;2024-01-06T14:39:11;4.10;99.90
8988;DHT22;4529;51.360;12.474;2024-01-06T14:44:15;4.10;99.90
8988;DHT22;4529;51.360;12.474;2024-01-06T14:49:19;4.20;99.90
8988;DHT22;4529;51.360;12.474;2024-01-06T14:54:32;4.40;99.90
8988;DHT22;4529;51.360;12.474;2024-01-06T14:59:36;4.40;99.90
8988;DHT22;4529;51.360;12.474;2024-01-06T15:04:40;4.50;99.90
8988;DHT22;4529;51.360;12.474;2024-01-06T15:09:44;4.60;99.90
8988;DHT22;4529;51.360;12.474;2024-01-06T15:14:48;4.60;99.90
8988;DHT22;4529;51.360;12.474;2024-01-06T15:19:51;4.60;99.90
8988;DHT22;4529;51.360;12.474;2024-01-06T15:24:55;4.60;99.90
8988;DHT22;4529;51.360;12.474;2024-01-06T15:29:58;4.70;99.90
8988;DHT22;4529;51.360;12.474;2024-01-06T15:35:02;4.70;99.90
8988;DHT22;4529;51.360;12.474;2024-01-06T15:40:07;4.70;99.90
8988;DHT22;4529;51.360;12.474;2024-01-06T15:45:11;4.70;99.90
8988;DHT22;4529;51.360;12.474;2024-01-06T15:50:15;4.70;99.90
8988;DHT22;4529;51.360;12.474;2024-01-06T15:55:24;4.70;99.90
8988;DHT22;4529;51.360;12.474;2024-01-06T16:00:28;4.70;99.90
8988;DHT22;4529;51.360;12.474;2024-01-06T16:05:32;4.70;99.90
8988;DHT22;4529;51.360;12.474;2024-01-06T16:10:37;4.70;99.90
8988;DHT22;4529;51.360;12.474;2024-01-06T16:15:41;4.80;99.90
8988;DHT22;4529;51.360;12.474;2024-01-06T16:20:45;4.70;99.90
8988;DHT22;4529;51.360;12.474;2024-01-06T16:25:49;4.70;99.90
8988;DHT22;4529;51.360;12.474;2024-01-06T16:30:52;4.70;99.90
8988;DHT22;4529;51.360;12.474;2024-01-06T16:35:55;4.80;99.90
8988;DHT22;4529;51.360;12.474;2024-01-06T16:40:59;4.70;99.90
8988;DHT22;4529;51.360;12.474;2024-01-06T16:46:03;4.70;99.90
8988;DHT22;4529;51.360;12.474;2024-01-06T16:51:06;4.70;99.90
8988;DHT22;4529;51.360;12.474;2024-01-06T16:56:09;4.60;99.90
8988;DHT22;4529;51.360;12.474;2024-01-06T17:01:13;4.00;99.90
8988;DHT22;4529;51.360;12.474;2024-01-06T17:06:16;3.80;99.90
8988;DHT22;4529;51.360;12.474;2024-01-06T17:11:20;4.00;99.90
8988;DHT22;4529;51.360;12.474;2024-01-06T17:16:23;4.20;99.90
8988;DHT22;4529;51.360;12.474;2024-01-06T17:21:26;4.20;99.90
8988;DHT22;4529;51.360;12.474;2024-01-06T17:26:30;4.30;99.90
8988;DHT22;4529;51.360;12.474;2024-01-06T17:31:34;4.30;99.90
8988;DHT22;4529;51.360;12.474;2024-01-06T17:36:38;4.30;99.90
8988;DHT22;4529;51.360;12.474;2024-01-06T17:41:43;4.30;99.90
8988;DHT22;4529;51.360;12.474;2024-01-06T17:46:48;4.30;99.90
8988;DHT22;4529;51.360;12.474;2024-01-06T17:51:52;4.40;99.90
8988;DHT22;4529;51.360;12.474;2024-01-06T17:56:56;4.30;99.90
8988;DHT22;4529;51.360;12.474;2024-01-06T18:02:00;4.30;99.90
8988;DHT22;4529;51.360;12.474;2024-01-06T18:07:04;4.40;99.90
8988;DHT22;4529;51.360;12.474;2024-01-06T18:12:08;4.30;99.90
8988;DHT22;4529;51.360;12.474;2024-01-06T18:17:13;4.50;99.90
8988;DHT22;4529;51.360;12.474;2024-01-06T18:22:17;4.50;99.90
8988;DHT22;4529;51.360;12.474;2024-01-06T18:27:21;4.10;99.90
8988;DHT22;4529;51.360;12.474;2024-01-06T18:32:24;4.10;99.90
8988;DHT22;4529;51.360;12.474;2024-01-06T18:37:28;3.80;99.90
8988;DHT22;4529;51.360;12.474;2024-01-06T18:42:32;3.50;99.90
8988;DHT22;4529;51.360;12.474;2024-01-06T18:47:36;3.50;99.90
8988;DHT22;4529;51.360;12.474;2024-01-06T18:52:40;3.40;99.90
8988;DHT22;4529;51.360;12.474;2024-01-06T18:57:45;3.30;99.90
8988;DHT22;4529;51.360;12.474;2024-01-06T19:02:49;3.30;99.90
8988;DHT22;4529;51.360;12.474;2024-01-06T19:07:53;3.30;99.90
8988;DHT22;4529;51.360;12.474;2024-01-06T19:12:57;3.30;99.90
8988;DHT22;4529;51.360;12.474;2024-01-06T19:18:01;3.30;99.90
8988;DHT22;4529;51.360;12.474;2024-01-06T19:23:05;3.30;99.90
8988;DHT22;4529;51.360;12.474;2024-01-06T19:28:09;3.10;99.90
8988;DHT22;4529;51.360;12.474;2024-01-06T19:33:14;3.00;99.90
8988;DHT22;4529;51.360;12.474;2024-01-06T19:38:19;3.00;99.90
8988;DHT22;4529;51.360;12.474;2024-01-06T19:43:24;2.90;99.90
8988;DHT22;4529;51.360;12.474;2024-01-06T19:48:28;2.90;99.90
8988;DHT22;4529;51.360;12.474;2024-01-06T19:53:31;2.90;99.90
8988;DHT22;4529;51.360;12.474;2024-01-06T19:58:36;2.80;99.90
8988;DHT22;4529;51.360;12.474;2024-01-06T20:03:39;2.70;99.90
8988;DHT22;4529;51.360;12.474;2024-01-06T20:08:42;2.80;99.90
8988;DHT22;4529;51.360;12.474;2024-01-06T20:13:46;2.80;99.90
8988;DHT22;4529;51.360;12.474;2024-01-06T20:18:49;2.80;99.90
8988;DHT22;4529;51.360;12.474;2024-01-06T20:23:53;2.80;99.90
8988;DHT22;4529;51.360;12.474;2024-01-06T20:28:56;2.70;99.90
8988;DHT22;4529;51.360;12.474;2024-01-06T20:34:00;2.70;99.90
8988;DHT22;4529;51.360;12.474;2024-01-06T20:39:04;2.70;99.90
8988;DHT22;4529;51.360;12.474;2024-01-06T20:44:08;2.60;99.90
8988;DHT22;4529;51.360;12.474;2024-01-06T20:49:11;2.60;99.90
8988;DHT22;4529;51.360;12.474;2024-01-06T20:54:16;2.50;99.90
8988;DHT22;4529;51.360;12.474;2024-01-06T20:59:19;2.50;99.90
8988;DHT22;4529;51.360;12.474;2024-01-06T21:04:23;2.50;99.90
8988;DHT22;4529;51.360;12.474;2024-01-06T21:09:27;2.50;99.90
8988;DHT22;4529;51.360;12.474;2024-01-06T21:14:31;2.40;99.90
8988;DHT22;4529;51.360;12.474;2024-01-06T21:19:36;2.40;99.90
8988;DHT22;4529;51.360;12.474;2024-01-06T21:24:40;2.40;99.90
8988;DHT22;4529;51.360;12.474;2024-01-06T21:29:45;2.40;99.90
8988;DHT22;4529;51.360;12.474;2024-01-06T21:34:49;2.40;99.90
8988;DHT22;4529;51.360;12.474;2024-01-06T21:39:53;2.40;99.90
8988;DHT22;4529;51.360;12.474;2024-01-06T21:44:56;2.40;99.90
8988;DHT22;4529;51.360;12.474;2024-01-06T21:50:00;2.30;99.90
8988;DHT22;4529;51.360;12.474;2024-01-06T21:55:04;2.30;99.90
8988;DHT22;4529;51.360;12.474;2024-01-06T22:00:08;2.40;99.90
8988;DHT22;4529;51.360;12.474;2024-01-06T22:05:11;2.30;99.90
8988;DHT22;4529;51.360;12.474;2024-01-06T22:10:15;2.30;99.90
8988;DHT22;4529;51.360;12.474;2024-01-06T22:15:18;2.20;99.90
8988;DHT22;4529;51.360;12.474;2024-01-06T22:20:22;2.20;99.90
8988;DHT22;4529;51.360;12.474;2024-01-06T22:25:25;2.10;99.90
8988;DHT22;4529;51.360;12.474;2024-01-06T22:30:29;2.20;99.90
8988;DHT22;4529;51.360;12.474;2024-01-06T22:35:33;2.10;99.90
8988;DHT22;4529;51.360;12.474;2024-01-06T22:40:37;2.10;99.90
8988;DHT22;4529;51.360;12.474;2024-01-06T22:45:40;2.20;99.90
8988;DHT22;4529;51.360;12.474;2024-01-06T22:50:44;2.10;99.90
8988;DHT22;4529;51.360;12.474;2024-01-06T22:55:47;2.10;99.90
8988;DHT22;4529;51.360;12.474;2024-01-06T23:00:51;2.10;99.90
8988;DHT22;4529;51.360;12.474;2024-01-06T23:05:54;2.10;99.90
8988;DHT22;4529;51.360;12.474;2024-01-06T23:10:58;2.00;99.90
8988;DHT22;4529;51.360;12.474;2024-01-06T23:16:03;2.00;99.90
8988;DHT22;4529;51.360;12.474;2024-01-06T23:21:06;1.90;99.90
8988;DHT22;4529;51.360;12.474;2024-01-06T23:26:10;1.80;99.90
8988;DHT22;4529;51.360;12.474;2024-01-06T23:31:14;1.80;99.90
8988;DHT22;4529;51.360;12.474;2024-01-06T23:36:18;1.80;99.90
8988;DHT22;4529;51.360;12.474;2024-01-06T23:41:22;1.70;99.90
8988;DHT22;4529;51.360;12.474;2024-01-06T23:46:26;1.70;99.90
8988;DHT22;4529;51.360;12.474;2024-01-06T23:51:29;1.80;99.90
8988;DHT22;4529;51.360;12.474;2024-01-06T23:56:38;1.80;99.90
